Time;durP1;ratioP1;P1;durP2;ratioP2;P2;SDS_P1;SDS_P2;PMS_P1;PMS_P2;Temp;Humidity;BMP_temperature;BMP_pressure;BME280_temperature;BME280_humidity;BME280_pressure;Samples;Min_cycle;Max_cycle;Signal;HPM_P1;HPM_P2
2022/03/10 00:00:38;;;;;;;22.63;3.63;;;9.00;99.90;;;;;;5063046;28;20624;-65
2022/03/10 00:03:04;;;;;;;9.23;2.70;;;9.00;99.90;;;;;;5060227;28;20270;-64
2022/03/10 00:05:31;;;;;;;9.07;2.97;;;9.00;99.90;;;;;;5069299;28;20252;-64
2022/03/10 00:07:57;;;;;;;11.00;3.10;;;9.00;99.90;;;;;;5068390;28;20198;-64
2022/03/10 00:10:23;;;;;;;11.50;2.97;;;9.10;99.90;;;;;;5068063;28;20288;-64
2022/03/10 00:12:52;;;;;;;12.83;2.90;;;9.10;99.90;;;;;;5067665;28;20210;-67
2022/03/10 00:15:22;;;;;;;9.57;3.33;;;9.10;99.90;;;;;;5068394;28;20193;-64
2022/03/10 00:17:49;;;;;;;6.93;3.27;;;9.10;99.90;;;;;;5067701;28;20209;-66
2022/03/10 00:20:16;;;;;;;8.33;3.00;;;9.10;99.90;;;;;;5068272;28;20185;-64
2022/03/10 00:22:45;;;;;;;8.93;3.07;;;9.10;99.90;;;;;;5049044;28;20194;-64
2022/03/10 00:25:12;;;;;;;13.03;3.33;;;9.10;99.90;;;;;;5066673;28;20321;-65
2022/03/10 00:27:38;;;;;;;13.70;3.43;;;9.20;99.90;;;;;;5068269;28;20222;-68
2022/03/10 00:30:05;;;;;;;9.70;3.20;;;9.20;99.90;;;;;;5069170;28;20190;-66
2022/03/10 00:32:32;;;;;;;14.93;2.87;;;9.10;99.90;;;;;;5062811;28;20242;-65
2022/03/10 00:34:58;;;;;;;12.47;3.20;;;9.20;99.90;;;;;;5066154;28;20198;-68
2022/03/10 00:37:25;;;;;;;9.50;2.60;;;9.20;99.90;;;;;;5066528;28;20201;-67
2022/03/10 00:39:51;;;;;;;9.13;2.73;;;9.20;99.90;;;;;;5068437;28;20225;-66
2022/03/10 00:42:17;;;;;;;9.87;2.87;;;9.20;99.90;;;;;;5050084;28;20191;-67
2022/03/10 00:44:43;;;;;;;13.97;2.90;;;9.20;99.90;;;;;;5065369;28;20194;-64
2022/03/10 00:47:09;;;;;;;11.57;2.97;;;9.20;99.90;;;;;;5066595;28;20269;-65
2022/03/10 00:49:36;;;;;;;10.97;2.83;;;9.20;99.90;;;;;;5068042;28;20627;-64
2022/03/10 00:52:02;;;;;;;13.83;2.23;;;9.20;99.90;;;;;;5067589;28;20316;-65
2022/03/10 00:54:29;;;;;;;9.70;2.33;;;9.20;99.90;;;;;;5067284;28;20696;-68
2022/03/10 00:56:55;;;;;;;9.70;2.63;;;9.20;99.90;;;;;;5066635;28;20220;-66
2022/03/10 00:59:21;;;;;;;9.43;2.90;;;9.20;99.90;;;;;;5067930;28;20187;-66
2022/03/10 01:01:47;;;;;;;10.63;2.53;;;9.10;99.90;;;;;;5069206;28;20850;-66
2022/03/10 01:04:13;;;;;;;9.33;2.40;;;9.20;99.90;;;;;;5070583;28;20186;-65
2022/03/10 01:06:40;;;;;;;8.77;2.40;;;9.20;99.90;;;;;;5071646;28;20191;-66
2022/03/10 01:09:06;;;;;;;9.37;2.80;;;9.20;99.90;;;;;;5070189;28;20566;-64
2022/03/10 01:11:33;;;;;;;14.27;2.70;;;9.20;99.90;;;;;;5072122;28;20198;-66
2022/03/10 01:14:00;;;;;;;17.03;2.43;;;9.20;99.90;;;;;;5052776;28;21053;-67
2022/03/10 01:16:27;;;;;;;12.73;2.47;;;9.20;99.90;;;;;;5070185;28;20297;-64
2022/03/10 01:18:53;;;;;;;9.60;2.70;;;9.20;99.90;;;;;;5073832;28;20186;-65
2022/03/10 01:21:19;;;;;;;12.57;2.77;;;9.20;99.90;;;;;;5070587;28;20215;-64
2022/03/10 01:23:47;;;;;;;9.30;2.50;;;9.20;99.90;;;;;;5071646;28;20217;-67
2022/03/10 01:26:13;;;;;;;8.10;2.27;;;9.20;99.90;;;;;;5069770;28;20276;-64
2022/03/10 01:28:39;;;;;;;10.90;2.70;;;9.20;99.90;;;;;;5069015;28;20218;-64
2022/03/10 01:31:05;;;;;;;4.83;2.10;;;9.20;99.90;;;;;;5072139;28;20186;-66
2022/03/10 01:33:33;;;;;;;8.50;2.70;;;9.20;99.90;;;;;;5070399;28;20198;-65
2022/03/10 01:36:00;;;;;;;10.67;2.70;;;9.20;99.90;;;;;;5068326;28;20202;-67
2022/03/10 01:38:26;;;;;;;6.07;2.60;;;9.20;99.90;;;;;;5071195;28;20209;-66
2022/03/10 01:40:52;;;;;;;9.77;2.70;;;9.20;99.90;;;;;;5071385;28;20194;-64
2022/03/10 01:43:19;;;;;;;8.17;2.37;;;9.20;99.90;;;;;;5067043;28;20237;-64
2022/03/10 01:45:45;;;;;;;6.83;2.57;;;9.20;99.90;;;;;;5066836;28;20190;-65
2022/03/10 01:48:11;;;;;;;7.77;2.33;;;9.20;99.90;;;;;;5071299;28;20187;-64
2022/03/10 01:50:38;;;;;;;11.03;2.40;;;9.20;99.90;;;;;;5070197;28;20198;-65
2022/03/10 01:53:04;;;;;;;8.70;2.33;;;9.30;99.90;;;;;;5070430;28;20795;-64
2022/03/10 01:55:31;;;;;;;6.63;2.30;;;9.30;99.90;;;;;;5069669;28;20663;-66
2022/03/10 01:57:59;;;;;;;9.53;2.50;;;9.30;99.90;;;;;;5069408;28;20264;-64
2022/03/10 02:00:25;;;;;;;8.40;2.47;;;9.30;99.90;;;;;;5068555;28;20202;-64
2022/03/10 02:02:51;;;;;;;6.10;2.67;;;9.30;99.90;;;;;;5068753;28;20194;-65
2022/03/10 02:05:18;;;;;;;8.97;2.87;;;9.30;99.90;;;;;;5071114;28;20191;-65
2022/03/10 02:10:30;;;;;;;5.70;2.20;;;9.30;99.90;;;;;;5070210;28;20191;-65
2022/03/10 02:12:56;;;;;;;5.73;2.43;;;9.30;99.90;;;;;;5068722;28;20207;-65
2022/03/10 02:18:17;;;;;;;7.43;2.03;;;9.20;99.90;;;;;;5063877;28;20195;-66
2022/03/10 02:20:44;;;;;;;8.47;2.27;;;9.10;99.90;;;;;;5067636;28;20187;-66
2022/03/10 02:23:11;;;;;;;3.40;1.87;;;9.10;99.90;;;;;;5051342;28;20191;-65
2022/03/10 02:25:40;;;;;;;2.67;1.77;;;9.10;99.90;;;;;;5066688;28;20218;-65
2022/03/10 02:28:07;;;;;;;8.87;2.00;;;9.00;99.90;;;;;;5064283;28;20655;-65
2022/03/10 02:30:35;;;;;;;4.50;1.87;;;8.80;99.90;;;;;;5067942;28;20191;-67
2022/03/10 02:33:02;;;;;;;6.77;2.43;;;8.80;99.90;;;;;;5069047;28;20297;-66
2022/03/10 02:35:29;;;;;;;4.00;2.20;;;8.80;99.90;;;;;;5069162;28;20198;-64
2022/03/10 02:37:56;;;;;;;10.60;2.40;;;8.90;99.90;;;;;;5068420;28;20274;-66
2022/03/10 02:40:23;;;;;;;13.70;2.83;;;8.80;99.90;;;;;;5066301;28;20237;-67
2022/03/10 02:42:49;;;;;;;6.83;2.30;;;8.80;99.90;;;;;;5068404;28;20214;-66
2022/03/10 02:45:16;;;;;;;9.90;2.73;;;8.70;99.90;;;;;;5064586;28;20195;-67
2022/03/10 02:47:42;;;;;;;6.53;2.63;;;8.80;99.90;;;;;;5069134;28;20215;-65
2022/03/10 02:50:09;;;;;;;9.57;2.63;;;8.80;99.90;;;;;;5068537;28;20858;-66
2022/03/10 02:52:39;;;;;;;8.97;3.60;;;8.80;99.90;;;;;;5069433;28;20214;-65
2022/03/10 02:55:08;;;;;;;7.80;2.90;;;8.90;99.90;;;;;;5069773;28;20712;-67
2022/03/10 02:57:37;;;;;;;7.03;2.77;;;8.90;99.90;;;;;;5068840;28;20850;-66
2022/03/10 03:00:05;;;;;;;12.83;2.80;;;8.90;99.90;;;;;;5070682;28;20175;-65
2022/03/10 03:02:31;;;;;;;11.53;3.00;;;8.90;99.90;;;;;;5073872;28;20287;-64
2022/03/10 03:04:58;;;;;;;9.40;2.90;;;8.90;99.90;;;;;;5069149;28;20194;-68
2022/03/10 03:07:24;;;;;;;6.87;3.10;;;8.90;99.90;;;;;;5068847;28;20222;-67
2022/03/10 03:09:50;;;;;;;5.63;2.57;;;9.00;99.90;;;;;;5069869;28;20217;-68
2022/03/10 03:12:16;;;;;;;12.40;3.37;;;8.90;99.90;;;;;;5069880;28;20226;-65
2022/03/10 03:14:43;;;;;;;7.30;2.90;;;8.90;99.90;;;;;;5066257;28;20186;-66
2022/03/10 03:17:09;;;;;;;9.60;3.17;;;8.90;99.90;;;;;;5079798;28;20186;-65
2022/03/10 03:19:35;;;;;;;6.20;2.87;;;8.90;99.90;;;;;;5075040;28;20206;-65
2022/03/10 03:22:01;;;;;;;8.53;3.13;;;8.90;99.90;;;;;;5069645;28;20193;-66
2022/03/10 03:24:27;;;;;;;7.00;3.10;;;8.90;99.90;;;;;;5067067;28;20214;-69
2022/03/10 03:26:54;;;;;;;12.97;3.73;;;8.80;99.90;;;;;;5066906;28;20208;-65
2022/03/10 03:29:20;;;;;;;17.30;3.63;;;8.80;99.90;;;;;;5051735;28;20328;-64
2022/03/10 03:31:47;;;;;;;8.57;2.77;;;8.90;99.90;;;;;;5068191;28;20225;-66
2022/03/10 03:34:13;;;;;;;5.97;2.70;;;8.90;99.90;;;;;;5068528;28;20209;-65
2022/03/10 03:36:44;;;;;;;10.93;3.30;;;8.90;99.90;;;;;;5068060;28;20699;-65
2022/03/10 03:39:12;;;;;;;6.83;2.80;;;8.90;99.90;;;;;;5068579;28;20215;-65
2022/03/10 03:41:40;;;;;;;8.00;2.93;;;8.90;99.90;;;;;;5066543;28;20183;-67
2022/03/10 03:44:07;;;;;;;10.27;3.03;;;8.90;99.90;;;;;;5076089;28;20536;-65
2022/03/10 03:46:34;;;;;;;10.60;2.70;;;8.90;99.90;;;;;;5049371;28;20304;-66
2022/03/10 03:49:00;;;;;;;10.97;3.07;;;9.00;99.90;;;;;;5069195;28;20431;-66
2022/03/10 03:51:26;;;;;;;3.57;2.33;;;9.00;99.90;;;;;;5050231;28;20611;-65
2022/03/10 03:53:53;;;;;;;5.73;2.37;;;8.90;99.90;;;;;;5068323;28;20218;-64
2022/03/10 03:56:19;;;;;;;5.27;2.30;;;8.90;99.90;;;;;;5075106;28;20271;-65
2022/03/10 03:58:45;;;;;;;4.20;1.90;;;8.90;99.90;;;;;;5066677;28;20324;-65
2022/03/10 04:01:12;;;;;;;6.50;2.17;;;8.70;99.90;;;;;;5068564;28;20189;-66
2022/03/10 04:03:39;;;;;;;6.93;2.40;;;8.70;99.90;;;;;;5066309;28;20191;-65
2022/03/10 04:06:05;;;;;;;5.43;2.07;;;8.70;99.90;;;;;;5068168;28;20197;-64
2022/03/10 04:08:31;;;;;;;5.37;1.90;;;8.70;99.90;;;;;;5068876;28;20186;-66
2022/03/10 04:10:58;;;;;;;6.97;2.10;;;8.70;99.90;;;;;;5067606;28;20210;-66
2022/03/10 04:13:24;;;;;;;5.93;2.40;;;8.70;99.90;;;;;;5066640;28;20211;-64
2022/03/10 04:15:51;;;;;;;3.47;2.10;;;8.70;99.90;;;;;;5050106;28;20183;-64
2022/03/10 04:18:18;;;;;;;7.33;2.47;;;8.70;99.90;;;;;;5066210;28;20190;-68
2022/03/10 04:20:46;;;;;;;3.87;2.23;;;8.70;99.90;;;;;;5067670;28;20186;-65
2022/03/10 04:23:14;;;;;;;4.50;2.10;;;8.70;99.90;;;;;;5068270;28;20185;-66
2022/03/10 04:25:41;;;;;;;5.43;2.23;;;8.60;99.90;;;;;;5052470;28;20210;-65
2022/03/10 04:28:08;;;;;;;5.73;2.40;;;8.60;99.90;;;;;;5067678;28;20340;-65
2022/03/10 04:30:35;;;;;;;4.00;2.10;;;8.60;99.90;;;;;;5066838;28;20194;-65
2022/03/10 04:33:02;;;;;;;4.83;1.83;;;8.60;99.90;;;;;;5072872;28;20203;-64
2022/03/10 04:35:29;;;;;;;8.70;2.00;;;8.60;99.90;;;;;;5067591;28;20198;-64
2022/03/10 04:37:56;;;;;;;8.77;2.20;;;8.60;99.90;;;;;;5067635;28;20187;-65
2022/03/10 04:40:23;;;;;;;7.93;2.33;;;8.70;99.90;;;;;;5066618;28;20194;-65
2022/03/10 04:42:50;;;;;;;7.90;2.40;;;8.70;99.90;;;;;;5064921;28;20221;-66
2022/03/10 04:45:17;;;;;;;9.00;2.10;;;8.80;99.90;;;;;;5065148;28;20190;-64
2022/03/10 04:47:43;;;;;;;5.43;2.10;;;8.80;99.90;;;;;;5050218;28;20191;-65
2022/03/10 04:50:13;;;;;;;3.97;2.30;;;8.80;99.90;;;;;;5067691;28;20203;-65
2022/03/10 04:52:40;;;;;;;4.90;2.40;;;8.80;99.90;;;;;;5068969;28;20202;-65
2022/03/10 04:55:10;;;;;;;7.03;2.57;;;8.80;99.90;;;;;;5067990;28;20655;-65
2022/03/10 04:57:37;;;;;;;4.97;2.50;;;8.80;99.90;;;;;;5067054;28;20265;-65
2022/03/10 05:00:10;;;;;;;4.03;2.47;;;8.80;99.90;;;;;;5068500;28;20174;-66
2022/03/10 05:02:38;;;;;;;7.53;2.33;;;8.70;99.90;;;;;;5066415;28;20248;-65
2022/03/10 05:05:11;;;;;;;6.43;2.30;;;8.70;99.90;;;;;;5065254;28;20821;-64
2022/03/10 05:07:37;;;;;;;6.37;2.40;;;8.60;99.90;;;;;;5049075;28;20194;-65
2022/03/10 05:10:04;;;;;;;8.50;2.93;;;8.60;99.90;;;;;;5067420;28;20271;-65
2022/03/10 05:12:30;;;;;;;9.73;2.63;;;8.60;99.90;;;;;;5067070;28;20347;-66
2022/03/10 05:14:56;;;;;;;4.93;2.60;;;8.70;99.90;;;;;;5065708;28;20278;-65
2022/03/10 05:17:23;;;;;;;7.20;3.07;;;8.70;99.90;;;;;;5068237;28;20190;-64
2022/03/10 05:19:52;;;;;;;5.37;2.40;;;8.80;99.90;;;;;;5068288;28;20627;-64
2022/03/10 05:22:19;;;;;;;8.90;3.10;;;8.80;99.90;;;;;;5068903;28;20218;-65
2022/03/10 05:24:48;;;;;;;11.83;2.83;;;8.80;99.90;;;;;;5067182;28;20214;-66
2022/03/10 05:27:14;;;;;;;8.27;2.63;;;8.90;99.90;;;;;;5067845;28;20194;-64
2022/03/10 05:29:40;;;;;;;5.93;2.53;;;8.90;99.90;;;;;;5067363;28;20261;-65
2022/03/10 05:32:11;;;;;;;9.30;3.20;;;8.90;99.90;;;;;;5066506;28;20194;-65
2022/03/10 05:34:37;;;;;;;15.10;3.33;;;9.00;99.90;;;;;;5067130;28;20209;-66
2022/03/10 05:37:04;;;;;;;5.93;3.03;;;9.00;99.90;;;;;;5054572;28;20182;-66
2022/03/10 05:39:30;;;;;;;9.90;3.30;;;9.00;99.90;;;;;;5068150;28;20254;-66
2022/03/10 05:42:15;;;;;;;4.37;2.90;;;9.00;99.90;;;;;;5067405;28;20194;-66
2022/03/10 05:44:41;;;;;;;11.03;2.90;;;9.00;99.90;;;;;;5046069;28;20230;-64
2022/03/10 05:47:09;;;;;;;6.30;3.13;;;9.00;99.90;;;;;;5051049;28;20233;-64
2022/03/10 05:49:37;;;;;;;5.63;3.00;;;9.00;99.90;;;;;;5070187;28;20317;-66
2022/03/10 05:52:04;;;;;;;10.00;3.50;;;9.00;99.90;;;;;;5070539;28;20210;-66
2022/03/10 05:54:30;;;;;;;12.10;3.33;;;9.10;99.90;;;;;;5065567;28;20210;-65
2022/03/10 05:56:56;;;;;;;10.63;2.90;;;9.10;99.90;;;;;;5070551;28;20248;-64
2022/03/10 05:59:23;;;;;;;9.80;2.50;;;9.00;99.90;;;;;;5070875;28;20187;-65
2022/03/10 06:01:49;;;;;;;7.37;2.83;;;8.80;99.90;;;;;;5070803;28;20190;-66
2022/03/10 06:04:17;;;;;;;7.37;3.30;;;8.70;99.90;;;;;;5069499;28;20610;-64
2022/03/10 06:06:43;;;;;;;9.33;2.93;;;8.70;99.90;;;;;;5069652;28;20205;-64
2022/03/10 06:09:11;;;;;;;13.73;3.97;;;8.70;99.90;;;;;;5070104;28;20198;-64
2022/03/10 06:11:37;;;;;;;9.87;2.60;;;8.70;99.90;;;;;;5069990;28;20631;-64
2022/03/10 06:14:04;;;;;;;12.10;3.20;;;8.70;99.90;;;;;;5067388;28;20222;-64
2022/03/10 06:16:30;;;;;;;12.40;3.47;;;8.80;99.90;;;;;;5070707;28;20214;-64
2022/03/10 06:18:56;;;;;;;9.87;2.80;;;8.80;99.90;;;;;;5070249;28;20642;-66
2022/03/10 06:21:23;;;;;;;15.97;3.67;;;8.80;99.90;;;;;;5070398;28;20240;-67
2022/03/10 06:23:49;;;;;;;13.43;3.13;;;8.80;99.90;;;;;;5068265;28;20682;-66
2022/03/10 06:26:16;;;;;;;7.67;3.40;;;8.80;99.90;;;;;;5063138;28;20210;-65
2022/03/10 06:28:45;;;;;;;9.83;3.17;;;8.80;99.90;;;;;;5071267;28;20311;-64
2022/03/10 06:31:12;;;;;;;11.03;3.30;;;8.80;99.90;;;;;;5069362;28;20199;-64
2022/03/10 06:33:38;;;;;;;11.50;3.20;;;8.80;99.90;;;;;;5068865;28;20663;-65
2022/03/10 06:36:05;;;;;;;5.70;2.93;;;8.80;99.90;;;;;;5068859;28;20244;-64
2022/03/10 06:38:32;;;;;;;7.77;3.07;;;8.90;99.90;;;;;;5071030;28;20274;-67
2022/03/10 06:40:59;;;;;;;5.23;2.87;;;8.90;99.90;;;;;;5070667;28;20195;-64
2022/03/10 06:43:25;;;;;;;8.50;3.20;;;8.90;99.90;;;;;;5070753;28;20191;-66
2022/03/10 06:45:51;;;;;;;8.30;3.13;;;8.90;99.90;;;;;;5068619;28;20222;-67
2022/03/10 06:48:18;;;;;;;16.03;3.93;;;9.00;99.90;;;;;;5070625;28;20198;-65
2022/03/10 06:50:44;;;;;;;11.10;4.07;;;9.00;99.90;;;;;;5068912;28;20195;-64
2022/03/10 06:53:11;;;;;;;12.40;3.93;;;9.00;99.90;;;;;;5069777;28;20225;-64
2022/03/10 06:55:38;;;;;;;7.67;3.53;;;9.10;99.90;;;;;;5068891;28;20182;-65
2022/03/10 06:58:04;;;;;;;16.10;3.83;;;9.20;99.90;;;;;;5068958;28;20237;-64
2022/03/10 07:00:32;;;;;;;8.87;3.50;;;9.20;99.90;;;;;;5053210;28;20218;-65
2022/03/10 07:02:59;;;;;;;14.53;4.00;;;9.30;99.90;;;;;;5081810;28;20902;-65
2022/03/10 07:05:25;;;;;;;8.47;3.67;;;9.30;99.90;;;;;;5078782;28;20628;-65
2022/03/10 07:07:51;;;;;;;12.20;3.87;;;9.40;99.90;;;;;;5069146;28;20635;-65
2022/03/10 07:10:17;;;;;;;18.77;4.03;;;9.40;99.90;;;;;;5067997;28;20190;-67
2022/03/10 07:12:43;;;;;;;10.07;3.70;;;9.50;99.90;;;;;;5054246;28;20208;-65
2022/03/10 07:15:11;;;;;;;13.40;3.60;;;9.60;99.90;;;;;;5061920;28;20187;-64
2022/03/10 07:17:42;;;;;;;14.60;4.30;;;9.60;99.90;;;;;;5100295;28;20190;-66
2022/03/10 07:20:09;;;;;;;10.90;3.30;;;9.60;99.90;;;;;;5071109;28;20265;-65
2022/03/10 07:22:36;;;;;;;13.70;3.27;;;9.70;99.90;;;;;;5067912;28;20201;-64
2022/03/10 07:25:03;;;;;;;8.40;3.23;;;9.70;99.90;;;;;;5068511;28;20211;-67
2022/03/10 07:27:29;;;;;;;10.87;3.27;;;9.70;99.90;;;;;;5069028;28;20206;-65
2022/03/10 07:29:56;;;;;;;6.33;3.27;;;9.70;99.90;;;;;;5067808;28;20190;-66
2022/03/10 07:32:26;;;;;;;11.23;3.13;;;9.70;99.90;;;;;;5066315;28;20214;-65
2022/03/10 07:34:52;;;;;;;12.87;3.03;;;9.70;99.90;;;;;;5066416;28;20203;-64
2022/03/10 07:37:18;;;;;;;10.53;3.30;;;9.70;99.90;;;;;;5070095;28;20635;-66
2022/03/10 07:39:44;;;;;;;11.83;3.20;;;9.70;99.90;;;;;;5068626;28;20240;-66
2022/03/10 07:42:11;;;;;;;10.93;3.17;;;9.80;99.90;;;;;;5068550;28;20647;-66
2022/03/10 07:44:37;;;;;;;10.33;3.50;;;9.90;99.90;;;;;;5066132;28;20249;-66
2022/03/10 07:47:04;;;;;;;9.67;3.33;;;10.00;99.90;;;;;;5067501;28;20195;-67
2022/03/10 07:49:32;;;;;;;13.50;3.30;;;10.00;99.90;;;;;;5068739;28;20566;-64
2022/03/10 07:52:00;;;;;;;13.30;4.00;;;10.00;99.90;;;;;;5050874;28;20668;-65
2022/03/10 07:54:27;;;;;;;8.43;3.00;;;10.20;99.90;;;;;;5069526;28;20235;-64
2022/03/10 07:56:53;;;;;;;11.80;2.97;;;10.40;99.90;;;;;;5068703;28;20187;-66
2022/03/10 07:59:20;;;;;;;7.03;3.20;;;10.40;99.90;;;;;;5066972;28;20393;-65
2022/03/10 08:01:46;;;;;;;9.20;2.50;;;10.30;99.90;;;;;;5064738;28;20282;-65
2022/03/10 08:04:13;;;;;;;16.33;2.43;;;10.40;99.90;;;;;;5049368;28;20233;-64
2022/03/10 08:06:39;;;;;;;12.23;2.40;;;10.30;99.90;;;;;;5064844;28;20244;-66
2022/03/10 08:09:06;;;;;;;7.70;2.77;;;10.10;99.90;;;;;;5065152;28;20193;-65
2022/03/10 08:11:33;;;;;;;8.23;2.87;;;10.00;99.90;;;;;;5061487;28;20199;-64
2022/03/10 08:13:59;;;;;;;10.30;3.23;;;10.00;99.90;;;;;;5061995;28;20211;-65
2022/03/10 08:16:26;;;;;;;22.57;3.53;;;9.90;99.90;;;;;;5063397;28;20191;-66
2022/03/10 08:18:52;;;;;;;15.13;3.77;;;9.90;99.90;;;;;;5060993;28;20616;-65
2022/03/10 08:21:18;;;;;;;9.93;3.20;;;10.00;99.90;;;;;;5064877;28;20233;-65
2022/03/10 08:23:45;;;;;;;8.03;3.27;;;10.10;99.90;;;;;;5064017;28;20286;-67
2022/03/10 08:26:13;;;;;;;10.50;3.10;;;10.20;99.90;;;;;;5066751;28;20737;-67
2022/03/10 08:28:39;;;;;;;16.63;3.40;;;10.10;99.90;;;;;;5076165;28;20359;-64
2022/03/10 08:31:06;;;;;;;14.20;3.23;;;10.10;99.90;;;;;;5073788;28;20197;-65
2022/03/10 08:33:32;;;;;;;11.33;2.57;;;10.10;99.90;;;;;;5068988;28;20298;-65
2022/03/10 08:35:59;;;;;;;13.83;3.07;;;10.00;99.90;;;;;;5064869;28;20206;-66
2022/03/10 08:38:25;;;;;;;10.03;3.07;;;10.10;99.90;;;;;;5065411;28;20193;-68
2022/03/10 08:40:52;;;;;;;9.37;2.10;;;10.10;99.90;;;;;;5045387;28;20191;-64
2022/03/10 08:43:20;;;;;;;4.90;2.00;;;10.00;99.90;;;;;;5066440;28;20190;-66
2022/03/10 08:45:46;;;;;;;6.70;1.83;;;10.10;99.90;;;;;;5063633;28;20351;-67
2022/03/10 08:48:13;;;;;;;6.37;2.07;;;10.10;99.90;;;;;;5062013;28;20206;-67
2022/03/10 08:50:40;;;;;;;4.70;1.67;;;10.10;99.90;;;;;;5047124;28;20214;-66
2022/03/10 08:53:06;;;;;;;5.70;2.00;;;10.20;99.90;;;;;;5067983;28;20210;-64
2022/03/10 08:55:32;;;;;;;12.17;2.70;;;10.20;99.90;;;;;;5066976;28;20198;-65
2022/03/10 08:58:02;;;;;;;4.97;1.63;;;10.30;99.90;;;;;;5070194;28;20183;-66
2022/03/10 09:00:28;;;;;;;5.17;2.00;;;10.40;99.90;;;;;;5072978;28;20197;-64
2022/03/10 09:02:54;;;;;;;6.73;2.43;;;10.50;99.90;;;;;;5087080;28;20742;-66
2022/03/10 09:05:21;;;;;;;7.30;2.10;;;10.70;99.90;;;;;;5065662;28;20230;-65
2022/03/10 09:07:47;;;;;;;8.60;1.90;;;10.80;99.90;;;;;;5063967;28;20293;-65
2022/03/10 09:10:13;;;;;;;7.43;2.00;;;10.80;99.90;;;;;;5071207;28;20194;-65
2022/03/10 09:12:42;;;;;;;4.47;1.60;;;10.70;99.90;;;;;;5057814;28;20317;-65
2022/03/10 09:15:10;;;;;;;6.50;2.07;;;10.70;99.90;;;;;;5071938;28;20187;-65
2022/03/10 09:17:37;;;;;;;9.63;2.00;;;10.70;99.90;;;;;;5072883;28;20221;-66
2022/03/10 09:20:05;;;;;;;4.80;1.60;;;10.70;99.90;;;;;;5066993;28;20192;-67
2022/03/10 09:22:31;;;;;;;7.70;2.20;;;10.70;99.90;;;;;;5051916;28;20209;-67
2022/03/10 09:24:58;;;;;;;6.63;2.10;;;10.70;99.90;;;;;;5070274;28;20710;-66
2022/03/10 09:27:24;;;;;;;5.63;1.90;;;10.60;99.90;;;;;;5070250;28;20671;-67
2022/03/10 09:29:50;;;;;;;8.20;2.03;;;10.50;99.90;;;;;;5075124;28;20195;-65
2022/03/10 09:32:17;;;;;;;4.20;2.30;;;10.40;99.90;;;;;;5072266;28;20281;-65
2022/03/10 09:34:44;;;;;;;4.23;1.90;;;10.40;99.90;;;;;;5070420;28;20209;-66
2022/03/10 09:37:11;;;;;;;8.03;2.10;;;10.30;99.90;;;;;;5073827;28;20679;-65
2022/03/10 09:39:37;;;;;;;7.00;2.07;;;10.30;99.90;;;;;;5077562;28;20198;-64
2022/03/10 09:42:05;;;;;;;6.40;2.43;;;10.30;99.90;;;;;;5052280;28;20273;-65
2022/03/10 09:44:36;;;;;;;7.27;2.17;;;10.60;99.90;;;;;;5077280;28;20199;-66
2022/03/10 09:47:04;;;;;;;7.13;2.23;;;11.00;99.90;;;;;;5066497;28;20646;-65
2022/03/10 09:49:36;;;;;;;23.70;5.63;;;11.80;99.90;;;;;;5073381;28;20183;-65
2022/03/10 09:52:02;;;;;;;6.17;1.97;;;13.80;99.90;;;;;;5069246;28;20834;-65
2022/03/10 09:54:29;;;;;;;6.63;1.70;;;14.40;99.90;;;;;;5057754;28;20195;-68
2022/03/10 09:56:56;;;;;;;4.50;1.40;;;13.20;99.90;;;;;;5075660;28;20196;-64
2022/03/10 09:59:27;;;;;;;6.63;1.50;;;12.30;99.90;;;;;;5075410;28;20199;-65
2022/03/10 10:01:54;;;;;;;4.53;1.23;;;11.70;99.90;;;;;;5076391;28;20217;-64
2022/03/10 10:04:21;;;;;;;2.87;1.33;;;11.80;99.90;;;;;;5069140;28;21430;-67
2022/03/10 10:07:07;;;;;;;2.30;1.10;;;12.60;99.90;;;;;;5071404;28;20265;-68
2022/03/10 10:09:56;;;;;;;3.77;1.20;;;13.50;99.90;;;;;;5077935;28;20186;-66
2022/03/10 10:12:30;;;;;;;5.23;1.30;;;17.40;99.90;;;;;;5076544;28;20206;-65
2022/03/10 10:15:00;;;;;;;4.57;1.50;;;20.60;99.90;;;;;;5069974;28;20186;-65
2022/03/10 10:17:33;;;;;;;2.03;0.93;;;20.20;99.90;;;;;;5053549;28;20179;-65
2022/03/10 10:20:01;;;;;;;3.80;1.10;;;18.90;99.90;;;;;;5072324;28;20187;-65
2022/03/10 10:22:29;;;;;;;1.97;1.03;;;17.30;99.90;;;;;;5068588;28;20210;-67
2022/03/10 10:25:04;;;;;;;5.00;1.00;;;16.60;99.90;;;;;;5073494;28;20959;-65
2022/03/10 10:27:35;;;;;;;2.63;0.90;;;16.10;99.90;;;;;;5077068;28;20193;-66
2022/03/10 10:30:07;;;;;;;3.37;1.10;;;16.30;99.90;;;;;;5076206;28;20374;-65
2022/03/10 10:32:52;;;;;;;4.00;1.03;;;16.30;99.90;;;;;;5062433;28;20317;-65
2022/03/10 10:35:23;;;;;;;5.10;1.33;;;16.00;99.90;;;;;;5066791;28;20229;-65
2022/03/10 10:37:54;;;;;;;2.67;1.20;;;16.50;99.90;;;;;;5065778;28;20695;-65
2022/03/10 10:40:27;;;;;;;6.60;1.20;;;17.30;99.90;;;;;;5070605;28;20764;-67
2022/03/10 10:42:54;;;;;;;2.27;1.03;;;17.00;99.90;;;;;;5075088;28;20278;-66
2022/03/10 10:45:37;;;;;;;2.40;1.10;;;17.20;99.90;;;;;;5065068;28;20266;-66
2022/03/10 10:48:10;;;;;;;4.90;1.20;;;16.30;99.90;;;;;;5069060;28;20194;-67
2022/03/10 10:50:40;;;;;;;3.43;1.20;;;15.80;99.90;;;;;;5068690;28;20278;-69
2022/03/10 10:53:07;;;;;;;2.83;1.30;;;15.20;99.90;;;;;;5068694;28;20241;-69
2022/03/10 10:55:41;;;;;;;4.67;1.30;;;14.90;99.90;;;;;;5065532;28;20190;-65
2022/03/10 10:58:16;;;;;;;3.67;1.33;;;14.90;99.90;;;;;;5070123;28;20718;-66
2022/03/10 11:00:49;;;;;;;4.83;1.53;;;14.90;99.90;;;;;;5070096;28;20579;-66
2022/03/10 11:03:37;;;;;;;3.73;1.30;;;14.70;99.90;;;;;;5064659;28;20234;-64
2022/03/10 11:06:03;;;;;;;3.27;1.17;;;14.50;99.90;;;;;;5069523;28;20201;-66
2022/03/10 11:08:29;;;;;;;7.70;1.43;;;14.30;99.90;;;;;;5069216;28;20195;-65
2022/03/10 11:10:57;;;;;;;4.20;1.40;;;14.10;99.90;;;;;;5069035;28;20281;-65
2022/03/10 11:13:23;;;;;;;8.70;1.33;;;14.00;99.90;;;;;;5065783;28;20705;-65
2022/03/10 11:15:55;;;;;;;6.07;1.27;;;13.80;99.90;;;;;;5051373;28;20655;-67
2022/03/10 11:18:23;;;;;;;6.73;1.30;;;13.60;99.90;;;;;;5067306;28;20185;-64
2022/03/10 11:21:14;;;;;;;5.90;1.50;;;13.60;99.90;;;;;;5068194;28;20222;-65
2022/03/10 11:24:37;;;;;;;4.63;1.20;;;13.60;99.90;;;;;;5065690;28;20215;-67
2022/03/10 11:27:15;;;;;;;6.40;1.40;;;13.70;99.90;;;;;;5062442;28;20174;-64
2022/03/10 11:29:47;;;;;;;3.03;1.27;;;13.70;99.90;;;;;;5066149;28;20194;-65
2022/03/10 11:32:14;;;;;;;4.70;1.50;;;13.70;99.90;;;;;;5068278;28;20247;-65
2022/03/10 11:34:56;;;;;;;4.00;1.40;;;13.60;99.90;;;;;;5066308;28;20223;-64
2022/03/10 11:37:42;;;;;;;5.67;1.23;;;13.60;99.90;;;;;;5066187;28;20191;-66
2022/03/10 11:40:37;;;;;;;5.50;1.77;;;13.50;99.90;;;;;;5046884;28;20745;-67
2022/03/10 11:43:04;;;;;;;5.20;1.57;;;13.50;99.90;;;;;;5047009;28;20186;-65
2022/03/10 11:45:32;;;;;;;5.43;1.40;;;13.30;99.90;;;;;;5068180;28;20199;-65
2022/03/10 11:48:30;;;;;;;7.70;1.30;;;13.30;99.90;;;;;;5066847;28;20221;-66
2022/03/10 11:50:56;;;;;;;4.90;1.40;;;13.40;99.90;;;;;;5068154;28;20201;-63
2022/03/10 11:53:22;;;;;;;5.03;1.70;;;13.50;99.90;;;;;;5049939;28;20206;-64
2022/03/10 11:55:53;;;;;;;12.73;2.40;;;13.50;99.90;;;;;;5065494;28;20218;-66
2022/03/10 11:58:34;;;;;;;6.87;1.50;;;13.40;99.90;;;;;;5064200;28;20564;-66
2022/03/10 12:01:01;;;;;;;4.83;1.57;;;13.50;99.90;;;;;;5065578;28;20191;-63
2022/03/10 12:03:36;;;;;;;3.67;1.70;;;13.40;99.90;;;;;;5067386;28;20217;-65
2022/03/10 12:06:07;;;;;;;4.50;1.57;;;13.50;99.90;;;;;;5067186;28;20263;-63
2022/03/10 12:08:36;;;;;;;2.60;1.17;;;13.50;99.90;;;;;;5048870;28;20186;-65
2022/03/10 12:11:06;;;;;;;2.60;1.30;;;13.40;99.90;;;;;;5067932;28;20517;-62
2022/03/10 12:13:39;;;;;;;3.10;1.47;;;13.10;99.90;;;;;;5070292;28;20276;-64
2022/03/10 12:16:08;;;;;;;4.47;1.90;;;13.00;99.90;;;;;;5064887;28;20213;-69
2022/03/10 12:18:43;;;;;;;3.17;1.50;;;12.90;99.90;;;;;;5067176;28;20324;-65
2022/03/10 12:21:27;;;;;;;4.10;1.60;;;12.90;99.90;;;;;;5081814;28;20247;-67
2022/03/10 12:24:04;;;;;;;6.07;1.50;;;12.90;99.90;;;;;;5070189;28;20240;-69
2022/03/10 12:26:36;;;;;;;4.30;1.37;;;13.00;99.90;;;;;;5083798;28;20670;-67
2022/03/10 12:29:12;;;;;;;3.83;1.30;;;12.90;99.90;;;;;;5085946;28;20198;-65
2022/03/10 12:31:42;;;;;;;6.23;1.30;;;12.90;99.90;;;;;;5084230;28;20190;-65
2022/03/10 12:34:13;;;;;;;7.73;1.40;;;13.00;99.90;;;;;;5071422;28;20221;-65
2022/03/10 12:36:51;;;;;;;6.90;1.40;;;13.20;99.90;;;;;;5067077;28;20989;-65
2022/03/10 12:39:21;;;;;;;5.07;1.17;;;13.20;99.90;;;;;;5044332;28;20200;-66
2022/03/10 12:41:54;;;;;;;3.37;1.33;;;13.10;99.90;;;;;;5064138;28;20191;-63
2022/03/10 12:44:25;;;;;;;5.27;1.50;;;13.10;99.90;;;;;;5061837;28;20202;-66
2022/03/10 12:46:53;;;;;;;4.80;1.30;;;13.00;99.90;;;;;;5063295;28;20190;-68
2022/03/10 12:49:48;;;;;;;3.23;1.20;;;12.90;99.90;;;;;;5066709;28;20277;-68
2022/03/10 12:52:17;;;;;;;6.50;1.30;;;12.70;99.90;;;;;;5068352;28;20191;-65
2022/03/10 12:54:46;;;;;;;9.60;2.00;;;12.70;99.90;;;;;;5047481;28;20193;-64
2022/03/10 12:57:13;;;;;;;7.37;2.60;;;12.70;99.90;;;;;;5063024;28;20203;-64
2022/03/10 12:59:42;;;;;;;11.83;1.77;;;12.80;99.90;;;;;;5066887;28;20178;-64
2022/03/10 13:02:26;;;;;;;5.00;1.20;;;12.80;99.90;;;;;;5060288;28;20187;-66